Time;durP1;ratioP1;P1;durP2;ratioP2;P2;SDS_P1;SDS_P2;PMS_P1;PMS_P2;Temp;Humidity;BMP_temperature;BMP_pressure;BME280_temperature;BME280_humidity;BME280_pressure;Samples;Min_cycle;Max_cycle;Signal;HPM_P1;HPM_P2
2024/04/24 00:00:39;;;;;;;19.60;18.90;;;22.80;1.00;;;;;;2611937;54;20151;-62
2024/04/24 00:03:05;;;;;;;19.83;19.03;;;22.80;1.00;;;;;;2611792;47;20995;-63
2024/04/24 00:05:31;;;;;;;28.43;27.43;;;22.80;1.00;;;;;;2611728;54;20431;-63
2024/04/24 00:07:57;;;;;;;18.50;17.80;;;22.80;1.00;;;;;;2611981;54;20471;-67
2024/04/24 00:10:23;;;;;;;18.60;17.90;;;22.80;1.00;;;;;;2611768;47;20170;-66
2024/04/24 00:12:49;;;;;;;19.00;18.30;;;22.80;1.00;;;;;;2611983;54;20438;-66
2024/04/24 00:15:15;;;;;;;18.20;17.50;;;22.80;1.00;;;;;;2612409;48;20155;-66
2024/04/24 00:17:41;;;;;;;18.70;18.00;;;22.80;1.00;;;;;;2611945;54;21039;-63
2024/04/24 00:20:07;;;;;;;18.60;17.90;;;22.80;1.00;;;;;;2611893;47;20151;-61
2024/04/24 00:22:32;;;;;;;18.77;18.07;;;22.80;1.00;;;;;;2611900;54;20682;-62
2024/04/24 00:24:58;;;;;;;18.63;17.93;;;22.80;1.00;;;;;;2611688;47;20427;-62
2024/04/24 00:27:26;;;;;;;28.13;27.13;;;22.80;1.00;;;;;;2612310;47;20169;-65
2024/04/24 00:29:52;;;;;;;28.07;27.07;;;22.70;1.00;;;;;;2611750;54;20167;-66
2024/04/24 00:32:18;;;;;;;28.40;27.40;;;22.70;1.00;;;;;;2611454;54;20434;-67
2024/04/24 00:34:44;;;;;;;28.80;27.80;;;22.70;1.00;;;;;;2611549;54;20246;-67
2024/04/24 00:37:10;;;;;;;28.27;27.27;;;22.70;1.00;;;;;;2611804;54;20454;-66
2024/04/24 00:39:36;;;;;;;28.57;27.57;;;22.70;1.00;;;;;;2612486;39;20550;-66
2024/04/24 00:42:01;;;;;;;28.50;27.50;;;22.70;1.00;;;;;;2612149;54;20422;-66
2024/04/24 00:44:27;;;;;;;29.03;27.93;;;22.70;1.00;;;;;;2612742;54;20143;-66
2024/04/24 00:46:54;;;;;;;28.93;27.93;;;22.70;1.00;;;;;;2612738;54;20151;-67
2024/04/24 00:49:20;;;;;;;28.27;27.27;;;22.70;1.00;;;;;;2612843;39;20623;-67
2024/04/24 00:51:47;;;;;;;28.23;27.23;;;22.70;1.00;;;;;;2613081;54;20407;-66
2024/04/24 00:54:13;;;;;;;29.30;28.20;;;22.70;1.00;;;;;;2612441;54;20431;-67
2024/04/24 00:56:40;;;;;;;28.90;27.90;;;22.70;1.00;;;;;;2612056;54;20435;-67
2024/04/24 00:59:06;;;;;;;28.70;27.70;;;22.60;1.00;;;;;;2612531;54;20407;-66
2024/04/24 01:01:32;;;;;;;28.60;27.60;;;22.60;1.00;;;;;;2612096;54;20431;-67
2024/04/24 01:03:58;;;;;;;29.20;28.10;;;22.60;1.00;;;;;;2612516;54;21270;-67
2024/04/24 01:06:23;;;;;;;28.70;27.60;;;22.60;1.00;;;;;;2612827;47;20170;-66
2024/04/24 01:08:49;;;;;;;27.77;26.77;;;22.60;1.00;;;;;;2612037;54;20186;-67
2024/04/24 01:11:15;;;;;;;27.83;26.83;;;22.60;1.00;;;;;;2612633;54;20191;-66
2024/04/24 01:13:41;;;;;;;28.03;27.03;;;22.60;1.00;;;;;;2612661;54;20671;-67
2024/04/24 01:16:16;;;;;;;28.20;27.20;;;22.50;1.00;;;;;;2613109;54;20143;-66
2024/04/24 01:18:50;;;;;;;28.20;27.20;;;22.60;1.00;;;;;;2612981;47;20155;-66
2024/04/24 01:21:16;;;;;;;27.40;26.40;;;22.60;1.00;;;;;;2612505;47;20430;-66
2024/04/24 01:23:54;;;;;;;27.90;26.90;;;22.60;1.00;;;;;;2612702;54;20400;-65
2024/04/24 01:26:33;;;;;;;19.20;18.50;;;22.50;1.00;;;;;;2612027;54;20399;-60
2024/04/24 01:28:59;;;;;;;19.80;19.00;;;22.50;1.00;;;;;;2612709;54;20945;-60
2024/04/24 01:31:25;;;;;;;19.60;18.80;;;22.50;1.00;;;;;;2611996;54;20423;-61
2024/04/24 01:33:51;;;;;;;20.30;19.50;;;22.50;1.00;;;;;;2612760;54;20683;-61
2024/04/24 01:36:16;;;;;;;20.00;19.20;;;22.50;1.00;;;;;;2612110;54;20158;-73
2024/04/24 01:38:42;;;;;;;20.20;19.40;;;22.50;1.00;;;;;;2613440;54;20462;-72
2024/04/24 01:41:08;;;;;;;20.23;19.43;;;22.50;1.00;;;;;;2613226;54;20162;-73
2024/04/24 01:43:36;;;;;;;19.20;18.50;;;22.50;1.00;;;;;;2613371;54;20169;-73
2024/04/24 01:46:03;;;;;;;19.40;18.70;;;22.50;1.00;;;;;;2613229;54;20162;-73
2024/04/24 01:48:29;;;;;;;19.10;18.40;;;22.50;1.00;;;;;;2613002;54;20396;-73
2024/04/24 01:50:54;;;;;;;19.33;18.63;;;22.40;1.00;;;;;;2613444;39;21220;-72
2024/04/24 01:53:20;;;;;;;19.20;18.50;;;22.40;1.00;;;;;;2612948;54;20323;-73
2024/04/24 01:55:46;;;;;;;19.30;18.60;;;22.40;1.00;;;;;;2612817;54;20166;-72
2024/04/24 01:58:12;;;;;;;19.60;18.83;;;22.40;1.00;;;;;;2613866;54;20149;-72
2024/04/24 02:00:37;;;;;;;28.80;27.80;;;22.40;1.00;;;;;;2612677;54;20163;-73
2024/04/24 02:03:03;;;;;;;19.00;18.30;;;22.40;1.00;;;;;;2613102;47;20159;-73
2024/04/24 02:05:29;;;;;;;21.20;20.40;;;22.40;1.00;;;;;;2613248;54;20149;-73
2024/04/24 02:07:55;;;;;;;18.80;18.10;;;22.40;1.00;;;;;;2612724;54;20419;-73
2024/04/24 02:10:21;;;;;;;19.63;18.90;;;22.40;1.00;;;;;;2613167;54;20151;-73
2024/04/24 02:12:46;;;;;;;19.07;18.37;;;22.40;1.00;;;;;;2613294;54;20158;-73
2024/04/24 02:15:12;;;;;;;19.10;18.40;;;22.40;1.00;;;;;;2613218;47;20165;-72
2024/04/24 02:17:38;;;;;;;18.80;18.10;;;22.40;1.00;;;;;;2613169;54;20157;-72
2024/04/24 02:20:04;;;;;;;28.00;27.00;;;22.40;1.00;;;;;;2613291;54;20147;-72
2024/04/24 02:22:30;;;;;;;22.30;21.50;;;22.30;1.00;;;;;;2613175;54;20167;-72
2024/04/24 02:27:40;;;;;;;18.87;18.17;;;22.30;1.00;;;;;;2612298;54;20504;-67
2024/04/24 02:30:07;;;;;;;19.00;18.30;;;22.30;1.00;;;;;;2612470;54;20395;-67
2024/04/24 02:32:32;;;;;;;18.70;18.00;;;22.30;1.00;;;;;;2612106;54;20166;-67
2024/04/24 02:34:58;;;;;;;18.90;18.20;;;22.30;1.00;;;;;;2612391;54;20428;-67
2024/04/24 02:37:24;;;;;;;19.70;18.90;;;22.30;1.00;;;;;;2612274;54;20159;-63
2024/04/24 02:39:50;;;;;;;20.00;19.20;;;22.30;1.00;;;;;;2612286;47;21083;-62
2024/04/24 02:42:15;;;;;;;19.67;18.87;;;22.30;1.00;;;;;;2612336;54;20234;-63
2024/04/24 02:44:41;;;;;;;29.03;27.93;;;22.30;1.00;;;;;;2612340;54;20174;-63
2024/04/24 02:47:07;;;;;;;19.90;19.10;;;22.30;1.00;;;;;;2613009;54;20193;-72
2024/04/24 02:49:33;;;;;;;20.17;19.37;;;22.30;1.00;;;;;;2612998;54;20431;-73
2024/04/24 02:51:58;;;;;;;19.60;18.90;;;22.30;1.00;;;;;;2613167;54;20146;-73
2024/04/24 02:54:24;;;;;;;20.13;19.33;;;22.30;1.00;;;;;;2612668;54;20293;-73
2024/04/24 02:56:50;;;;;;;28.93;27.93;;;22.30;1.00;;;;;;2612464;51;20165;-72
2024/04/24 02:59:16;;;;;;;19.90;19.10;;;22.20;1.00;;;;;;2612631;47;20213;-72
2024/04/24 03:01:42;;;;;;;20.30;19.50;;;22.30;1.00;;;;;;2612586;54;20167;-73
2024/04/24 03:04:07;;;;;;;20.70;19.90;;;22.20;1.00;;;;;;2612949;39;20913;-74
2024/04/24 03:06:33;;;;;;;20.20;19.40;;;22.30;1.00;;;;;;2613085;54;20170;-73
2024/04/24 03:08:59;;;;;;;20.50;19.70;;;22.20;1.00;;;;;;2613551;54;20238;-72
2024/04/24 03:11:25;;;;;;;20.60;19.80;;;22.20;1.00;;;;;;2612885;54;20158;-74
2024/04/24 03:13:50;;;;;;;25.07;24.17;;;22.30;1.00;;;;;;2613004;54;20174;-72
2024/04/24 03:16:16;;;;;;;20.57;19.77;;;22.30;1.00;;;;;;2613056;54;20154;-72
2024/04/24 03:18:43;;;;;;;20.63;19.83;;;22.30;1.00;;;;;;2613312;54;20139;-72
2024/04/24 03:21:08;;;;;;;21.00;20.20;;;22.30;1.00;;;;;;2613994;31;20691;-72
2024/04/24 03:23:34;;;;;;;20.60;19.80;;;22.30;1.00;;;;;;2612830;54;20383;-72
2024/04/24 03:26:00;;;;;;;20.70;19.90;;;22.30;1.00;;;;;;2612485;54;20139;-74
2024/04/24 03:28:25;;;;;;;20.60;19.80;;;22.30;1.00;;;;;;2612796;54;20273;-73
2024/04/24 03:30:51;;;;;;;20.40;19.60;;;22.30;1.00;;;;;;2613119;54;20169;-73
2024/04/24 03:33:17;;;;;;;20.00;19.20;;;22.30;1.00;;;;;;2612689;54;20150;-73
2024/04/24 03:35:43;;;;;;;20.40;19.60;;;22.30;1.00;;;;;;2612437;54;20162;-73
2024/04/24 03:38:08;;;;;;;20.27;19.47;;;22.30;1.00;;;;;;2612032;54;20170;-65
2024/04/24 03:40:34;;;;;;;20.63;19.83;;;22.30;1.00;;;;;;2612094;54;20171;-65
2024/04/24 03:43:00;;;;;;;20.30;19.50;;;22.20;1.00;;;;;;2612389;54;20181;-65
2024/04/24 03:45:26;;;;;;;20.03;19.23;;;22.20;1.00;;;;;;2611955;54;20700;-65
2024/04/24 03:47:53;;;;;;;20.40;19.60;;;22.20;1.00;;;;;;2611609;54;20159;-60
2024/04/24 03:50:18;;;;;;;31.03;29.93;;;22.20;1.00;;;;;;2612360;39;20578;-60
2024/04/24 03:52:45;;;;;;;20.17;19.37;;;22.20;1.00;;;;;;2611613;54;20542;-60
2024/04/24 03:55:10;;;;;;;19.90;19.10;;;22.20;1.00;;;;;;2611978;54;20174;-59
2024/04/24 03:57:36;;;;;;;19.60;18.80;;;22.20;1.00;;;;;;2611984;54;20423;-61
2024/04/24 04:00:02;;;;;;;19.90;19.10;;;22.10;1.00;;;;;;2611720;54;20249;-61
2024/04/24 04:02:28;;;;;;;20.10;19.30;;;22.10;1.00;;;;;;2612069;54;20286;-62
2024/04/24 04:04:53;;;;;;;20.20;19.40;;;22.10;1.00;;;;;;2611573;54;20151;-62
2024/04/24 04:07:19;;;;;;;31.70;30.60;;;22.10;1.00;;;;;;2612053;54;20150;-62
2024/04/24 04:09:45;;;;;;;19.47;18.77;;;22.20;1.00;;;;;;2612264;54;20179;-61
2024/04/24 04:12:10;;;;;;;19.63;18.87;;;22.20;1.00;;;;;;2612098;39;20806;-62
2024/04/24 04:14:36;;;;;;;19.40;18.70;;;22.20;1.00;;;;;;2611898;54;20155;-60
2024/04/24 04:17:02;;;;;;;19.17;18.47;;;22.20;1.00;;;;;;2612035;54;20154;-62
2024/04/24 04:19:28;;;;;;;19.30;18.60;;;22.20;1.00;;;;;;2612603;54;20167;-62
2024/04/24 04:21:53;;;;;;;19.17;18.47;;;22.10;1.00;;;;;;2613119;54;20211;-64
2024/04/24 04:24:19;;;;;;;30.83;29.73;;;22.10;1.00;;;;;;2612897;54;20154;-61
2024/04/24 04:26:46;;;;;;;19.17;18.47;;;22.10;1.00;;;;;;2612548;54;20160;-61
2024/04/24 04:29:11;;;;;;;19.20;18.50;;;22.10;1.00;;;;;;2612283;54;20171;-62
2024/04/24 04:31:37;;;;;;;19.80;19.00;;;22.10;1.00;;;;;;2612108;54;20455;-61
2024/04/24 04:34:03;;;;;;;19.17;18.47;;;22.10;1.00;;;;;;2612862;39;20630;-61
2024/04/24 04:36:29;;;;;;;19.40;18.70;;;22.10;1.00;;;;;;2612218;54;20159;-62
2024/04/24 04:38:54;;;;;;;20.00;19.20;;;22.10;1.00;;;;;;2612141;54;20150;-62
2024/04/24 04:41:20;;;;;;;31.27;30.17;;;22.00;1.00;;;;;;2612309;54;20147;-62
2024/04/24 04:43:46;;;;;;;19.37;18.67;;;22.00;1.00;;;;;;2612389;47;20187;-63
2024/04/24 04:46:12;;;;;;;24.67;23.77;;;22.00;1.00;;;;;;2612831;54;20166;-66
2024/04/24 04:48:37;;;;;;;31.80;30.70;;;22.00;1.00;;;;;;2612839;54;20194;-65
2024/04/24 04:51:05;;;;;;;31.50;30.40;;;22.00;1.00;;;;;;2613041;54;20230;-65
2024/04/24 04:53:31;;;;;;;20.00;19.20;;;22.00;1.00;;;;;;2613028;54;20191;-65
2024/04/24 04:55:56;;;;;;;20.07;19.27;;;21.90;1.00;;;;;;2612740;54;21110;-62
2024/04/24 04:58:22;;;;;;;18.90;18.20;;;22.00;1.00;;;;;;2612695;54;20431;-62
2024/04/24 05:00:48;;;;;;;32.10;31.00;;;22.00;1.00;;;;;;2612355;47;20162;-62
2024/04/24 05:03:14;;;;;;;18.90;18.20;;;21.90;1.00;;;;;;2612478;54;20522;-61
2024/04/24 05:05:39;;;;;;;31.80;30.70;;;21.90;1.00;;;;;;2611829;54;20772;-62
2024/04/24 05:08:05;;;;;;;31.97;30.87;;;21.90;1.00;;;;;;2612866;54;20182;-65
2024/04/24 05:10:31;;;;;;;20.00;19.20;;;21.90;1.00;;;;;;2611626;54;20167;-65
2024/04/24 05:12:57;;;;;;;19.37;18.67;;;21.90;1.00;;;;;;2612783;54;20181;-65
2024/04/24 05:15:22;;;;;;;19.73;19.03;;;21.90;1.00;;;;;;2612177;54;20143;-65
2024/04/24 05:17:48;;;;;;;19.50;18.80;;;21.90;1.00;;;;;;2612215;54;20170;-65
2024/04/24 05:20:14;;;;;;;31.20;30.10;;;21.90;1.00;;;;;;2610461;54;20150;-62
2024/04/24 05:22:46;;;;;;;19.10;18.40;;;21.90;1.00;;;;;;2612123;39;21083;-63
2024/04/24 05:25:16;;;;;;;17.87;17.20;;;21.90;1.00;;;;;;2611369;54;20163;-63
2024/04/24 05:30:27;;;;;;;31.70;30.60;;;21.90;1.00;;;;;;2611089;54;20410;-63
2024/04/24 05:32:53;;;;;;;19.20;18.50;;;21.90;1.00;;;;;;2612331;54;20391;-64
2024/04/24 05:35:19;;;;;;;19.23;18.53;;;22.00;1.00;;;;;;2612143;54;21923;-62
2024/04/24 05:37:44;;;;;;;19.40;18.70;;;21.90;1.00;;;;;;2612353;54;20182;-64
2024/04/24 05:40:10;;;;;;;19.20;18.50;;;21.90;1.00;;;;;;2612551;47;20158;-64
2024/04/24 05:42:36;;;;;;;19.50;18.80;;;21.90;1.00;;;;;;2611590;54;20175;-63
2024/04/24 05:45:02;;;;;;;22.33;21.53;;;21.90;1.00;;;;;;2610863;46;20177;-63
2024/04/24 05:47:28;;;;;;;33.40;32.20;;;21.90;1.00;;;;;;2611972;54;20166;-64
2024/04/24 05:49:55;;;;;;;19.50;18.80;;;21.90;1.00;;;;;;2611266;54;20154;-63
2024/04/24 05:52:20;;;;;;;19.60;18.90;;;21.90;1.00;;;;;;2611960;47;20198;-63
2024/04/24 05:54:46;;;;;;;18.90;18.20;;;22.00;1.00;;;;;;2611827;54;20434;-63
2024/04/24 05:57:12;;;;;;;18.40;17.70;;;22.00;1.00;;;;;;2611903;54;20158;-65
2024/04/24 05:59:38;;;;;;;21.90;21.00;;;22.00;1.00;;;;;;2611296;39;20570;-64
2024/04/24 06:02:03;;;;;;;50.10;48.17;;;22.10;1.00;;;;;;2611402;39;21302;-63
2024/04/24 06:04:29;;;;;;;65.70;63.10;;;22.60;1.00;;;;;;2611415;47;20225;-58
2024/04/24 06:06:55;;;;;;;66.47;63.87;;;23.20;1.00;;;;;;2612142;47;20174;-68
2024/04/24 06:09:21;;;;;;;56.87;54.77;;;23.50;1.00;;;;;;2611515;54;20282;-68
2024/04/24 06:11:46;;;;;;;57.30;55.20;;;23.70;1.00;;;;;;2606977;54;20242;-68
2024/04/24 06:14:12;;;;;;;58.47;56.27;;;23.40;1.00;;;;;;2609426;39;20885;-69
2024/04/24 06:16:38;;;;;;;56.83;54.73;;;23.10;1.00;;;;;;2610408;54;20171;-60
2024/04/24 06:19:03;;;;;;;56.77;54.67;;;22.90;1.00;;;;;;2611759;54;20181;-61
2024/04/24 06:21:29;;;;;;;57.77;55.57;;;22.60;1.00;;;;;;2611955;54;20167;-60
2024/04/24 06:23:55;;;;;;;57.10;55.00;;;22.50;1.00;;;;;;2611083;51;20179;-61
2024/04/24 06:26:21;;;;;;;56.37;54.27;;;22.40;1.00;;;;;;2611768;47;20708;-61
2024/04/24 06:28:47;;;;;;;58.30;56.10;;;22.30;1.00;;;;;;2611661;54;20423;-59
2024/04/24 06:31:12;;;;;;;57.33;55.17;;;22.30;1.00;;;;;;2612353;54;20167;-60
2024/04/24 06:33:38;;;;;;;57.80;55.70;;;22.20;1.00;;;;;;2611280;54;20178;-61
2024/04/24 06:36:05;;;;;;;57.87;55.67;;;22.20;1.00;;;;;;2611794;54;20181;-60
2024/04/24 06:38:31;;;;;;;57.70;55.50;;;22.20;1.00;;;;;;2611529;54;22716;-61
2024/04/24 06:40:57;;;;;;;59.53;57.23;;;22.10;1.00;;;;;;2611262;54;20423;-59
2024/04/24 06:43:23;;;;;;;58.03;55.83;;;22.10;1.00;;;;;;2612091;54;20542;-61
2024/04/24 06:45:49;;;;;;;59.17;56.87;;;22.10;1.00;;;;;;2610915;54;20193;-61
2024/04/24 06:48:14;;;;;;;58.57;56.37;;;22.10;1.00;;;;;;2611536;54;20166;-61
2024/04/24 06:50:40;;;;;;;58.07;55.87;;;22.10;1.00;;;;;;2610890;54;20198;-60
2024/04/24 06:53:06;;;;;;;58.20;56.00;;;22.10;1.00;;;;;;2611531;54;20186;-60
2024/04/24 06:55:32;;;;;;;57.90;55.70;;;22.10;1.00;;;;;;2611639;54;20447;-61
2024/04/24 06:57:57;;;;;;;58.07;55.87;;;22.00;1.00;;;;;;2611695;54;20306;-60
2024/04/24 07:00:24;;;;;;;57.80;55.60;;;22.10;1.00;;;;;;2610383;54;20173;-60
2024/04/24 07:02:50;;;;;;;57.10;55.00;;;22.10;1.00;;;;;;2611035;54;20159;-61
2024/04/24 07:05:16;;;;;;;57.23;55.03;;;22.10;1.00;;;;;;2612093;31;20930;-61
2024/04/24 07:07:42;;;;;;;57.60;55.40;;;22.10;1.00;;;;;;2610638;54;20399;-61
2024/04/24 07:10:08;;;;;;;58.03;55.83;;;22.10;1.00;;;;;;2610291;54;20153;-61
2024/04/24 07:12:34;;;;;;;56.70;54.60;;;22.00;1.00;;;;;;2610255;54;20169;-62
2024/04/24 07:14:59;;;;;;;26.77;25.67;;;21.90;1.00;;;;;;2610321;54;20703;-62
2024/04/24 07:17:25;;;;;;;24.70;23.70;;;21.90;1.00;;;;;;2611377;47;20462;-69
2024/04/24 07:19:51;;;;;;;49.10;47.23;;;22.00;1.00;;;;;;2612028;54;20170;-68
2024/04/24 07:22:16;;;;;;;25.30;24.30;;;22.00;1.00;;;;;;2609532;54;20158;-69
2024/04/24 07:24:42;;;;;;;25.13;24.13;;;22.00;1.00;;;;;;2611342;54;20163;-68
2024/04/24 07:27:08;;;;;;;25.97;24.97;;;22.00;1.00;;;;;;2611861;54;20167;-63
2024/04/24 07:29:34;;;;;;;25.67;24.57;;;22.00;1.00;;;;;;2611395;54;20171;-64
2024/04/24 07:31:59;;;;;;;25.57;24.47;;;22.00;1.00;;;;;;2611097;54;20178;-63
2024/04/24 07:34:25;;;;;;;25.83;24.83;;;22.00;1.00;;;;;;2611667;47;20167;-63
2024/04/24 07:36:51;;;;;;;59.37;57.07;;;22.00;1.00;;;;;;2611085;54;20201;-70
2024/04/24 07:39:17;;;;;;;58.50;56.30;;;22.00;1.00;;;;;;2611087;47;20443;-69
2024/04/24 07:41:43;;;;;;;25.00;24.00;;;22.00;1.00;;;;;;2612112;54;20182;-69
2024/04/24 07:44:08;;;;;;;25.17;24.17;;;21.90;1.00;;;;;;2611328;54;20251;-70
2024/04/24 07:46:34;;;;;;;25.40;24.40;;;21.90;1.00;;;;;;2611908;54;20170;-69
2024/04/24 07:49:00;;;;;;;25.20;24.20;;;21.90;1.00;;;;;;2611021;54;20146;-70
2024/04/24 07:51:26;;;;;;;25.83;24.77;;;21.90;1.00;;;;;;2610847;54;20178;-70
2024/04/24 07:53:51;;;;;;;25.00;24.00;;;21.90;1.00;;;;;;2612245;54;20289;-70
2024/04/24 07:56:17;;;;;;;24.77;23.77;;;21.90;1.00;;;;;;2611512;54;20174;-70
2024/04/24 07:58:43;;;;;;;56.90;54.80;;;21.90;1.00;;;;;;2611812;54;20269;-68
2024/04/24 08:01:08;;;;;;;56.60;54.50;;;21.90;1.00;;;;;;2611593;54;20158;-70
2024/04/24 08:03:34;;;;;;;24.73;23.73;;;21.90;1.00;;;;;;2611205;54;20171;-69
2024/04/24 08:06:00;;;;;;;24.10;23.10;;;21.90;1.00;;;;;;2611319;54;20180;-70
2024/04/24 08:08:26;;;;;;;24.40;23.40;;;21.90;1.00;;;;;;2611666;54;20165;-69
2024/04/24 08:10:51;;;;;;;24.80;23.80;;;21.80;1.00;;;;;;2612297;54;20403;-69
2024/04/24 08:13:19;;;;;;;24.47;23.47;;;21.80;1.00;;;;;;2613045;54;20190;-70
2024/04/24 08:15:45;;;;;;;56.37;54.27;;;21.80;1.00;;;;;;2611584;54;20151;-69
2024/04/24 08:18:10;;;;;;;25.00;24.00;;;21.80;1.00;;;;;;2612592;54;20506;-69
2024/04/24 08:20:36;;;;;;;56.63;54.53;;;21.80;1.00;;;;;;2612681;54;20162;-70
2024/04/24 08:23:02;;;;;;;56.43;54.33;;;21.80;1.00;;;;;;2612578;47;20162;-70
2024/04/24 08:25:28;;;;;;;24.77;23.77;;;21.80;1.00;;;;;;2612683;46;21073;-70
2024/04/24 08:27:53;;;;;;;24.60;23.60;;;21.80;1.00;;;;;;2612569;47;20189;-61
2024/04/24 08:30:20;;;;;;;56.80;54.70;;;21.80;1.00;;;;;;2611480;47;20254;-61
2024/04/24 08:32:45;;;;;;;56.27;54.17;;;21.80;1.00;;;;;;2611953;54;20169;-59
2024/04/24 08:35:12;;;;;;;24.63;23.63;;;21.80;1.00;;;;;;2611417;54;20415;-60
2024/04/24 08:37:37;;;;;;;24.70;23.70;;;21.80;1.00;;;;;;2612685;54;20170;-69
2024/04/24 08:40:03;;;;;;;25.00;24.00;;;21.80;1.00;;;;;;2611911;54;20433;-69
2024/04/24 08:42:30;;;;;;;24.70;23.70;;;21.80;1.00;;;;;;2611933;47;20178;-69
2024/04/24 08:44:58;;;;;;;24.73;23.73;;;21.70;1.00;;;;;;2611790;46;20518;-68
2024/04/24 08:47:25;;;;;;;25.00;24.00;;;21.80;1.00;;;;;;2611806;54;20439;-69
2024/04/24 08:49:53;;;;;;;57.73;55.53;;;21.70;1.00;;;;;;2611448;54;20419;-69
2024/04/24 08:52:22;;;;;;;23.90;22.90;;;21.70;1.00;;;;;;2611886;54;20427;-69
2024/04/24 08:54:51;;;;;;;25.10;24.10;;;21.70;1.00;;;;;;2612219;54;20443;-69
2024/04/24 08:57:17;;;;;;;25.80;24.73;;;21.70;1.00;;;;;;2612854;54;20435;-68
2024/04/24 08:59:46;;;;;;;54.10;52.10;;;21.70;1.00;;;;;;2612930;31;20965;-70
2024/04/24 09:02:14;;;;;;;58.00;55.80;;;21.70;1.00;;;;;;2611910;54;20487;-69
2024/04/24 09:04:42;;;;;;;25.10;24.10;;;21.70;1.00;;;;;;2612702;54;20415;-69
2024/04/24 09:07:08;;;;;;;25.17;24.17;;;21.70;1.00;;;;;;2613219;31;20816;-69
2024/04/24 09:09:34;;;;;;;58.40;56.20;;;21.60;1.00;;;;;;2612050;54;20435;-69
2024/04/24 09:12:01;;;;;;;25.30;24.30;;;21.70;1.00;;;;;;2612466;54;20900;-68
2024/04/24 09:14:30;;;;;;;26.00;24.90;;;21.70;1.00;;;;;;2612323;54;20408;-68
2024/04/24 09:16:56;;;;;;;25.30;24.30;;;21.70;1.00;;;;;;2613371;39;20826;-68
2024/04/24 09:19:23;;;;;;;26.00;25.00;;;21.70;1.00;;;;;;2611867;47;20491;-68
2024/04/24 09:21:49;;;;;;;58.10;55.90;;;21.70;1.00;;;;;;2612138;54;20517;-68
2024/04/24 09:24:21;;;;;;;26.63;25.53;;;21.70;1.00;;;;;;2612059;54;20430;-68
2024/04/24 09:26:48;;;;;;;26.17;25.07;;;21.70;1.00;;;;;;2611751;54;20181;-68
2024/04/24 09:29:14;;;;;;;26.30;25.20;;;21.70;1.00;;;;;;2613308;39;20788;-68
2024/04/24 09:31:41;;;;;;;59.13;56.83;;;21.70;1.00;;;;;;2612493;54;20411;-68
2024/04/24 09:34:07;;;;;;;59.93;57.63;;;21.60;1.00;;;;;;2612478;54;20567;-68
2024/04/24 09:36:37;;;;;;;26.27;25.17;;;21.60;1.00;;;;;;2612301;47;20431;-66
2024/04/24 09:39:06;;;;;;;26.00;24.90;;;21.60;1.00;;;;;;2612374;54;20403;-67
2024/04/24 09:41:33;;;;;;;26.37;25.27;;;21.60;1.00;;;;;;2612183;54;21700;-66
2024/04/24 09:43:59;;;;;;;25.83;24.73;;;21.70;1.00;;;;;;2612256;47;20426;-66
2024/04/24 09:46:25;;;;;;;25.83;24.73;;;21.70;1.00;;;;;;2611459;54;20435;-65
2024/04/24 09:48:52;;;;;;;26.37;25.27;;;21.70;1.00;;;;;;2612300;54;20162;-64
2024/04/24 09:51:18;;;;;;;25.80;24.80;;;21.80;1.00;;;;;;2612299;54;20675;-64
2024/04/24 09:53:44;;;;;;;59.60;57.30;;;21.80;1.00;;;;;;2612030;54;20458;-63
2024/04/24 09:56:20;;;;;;;58.90;56.70;;;21.90;1.00;;;;;;2613104;54;20531;-60
2024/04/24 09:58:50;;;;;;;59.60;57.30;;;21.90;1.00;;;;;;2611878;54;20263;-60
2024/04/24 10:01:16;;;;;;;25.60;24.60;;;22.00;1.00;;;;;;2611348;54;20431;-60
2024/04/24 10:03:45;;;;;;;25.43;24.43;;;22.10;1.00;;;;;;2611841;54;20383;-60
2024/04/24 10:06:14;;;;;;;25.10;24.10;;;22.10;1.00;;;;;;2612591;47;20399;-61
2024/04/24 10:08:42;;;;;;;25.07;24.07;;;22.10;1.00;;;;;;2612412;54;20451;-60
2024/04/24 10:11:12;;;;;;;24.83;23.83;;;22.00;1.00;;;;;;2611889;54;20419;-61
2024/04/24 10:13:40;;;;;;;25.70;24.60;;;22.10;1.00;;;;;;2612195;54;20447;-61
2024/04/24 10:16:07;;;;;;;24.37;23.43;;;22.00;1.00;;;;;;2613114;39;20872;-60
2024/04/24 10:18:35;;;;;;;56.57;54.47;;;22.10;1.00;;;;;;2612139;47;20419;-61
2024/04/24 10:21:04;;;;;;;25.43;24.40;;;22.10;1.00;;;;;;2612399;54;20419;-61
2024/04/24 10:23:30;;;;;;;33.93;32.63;;;22.00;1.00;;;;;;2612447;54;20431;-60
2024/04/24 10:25:57;;;;;;;24.30;23.40;;;21.90;1.00;;;;;;2612742;54;20407;-61
2024/04/24 10:28:24;;;;;;;24.50;23.60;;;21.90;1.00;;;;;;2612451;54;20440;-67
2024/04/24 10:30:52;;;;;;;24.77;23.77;;;21.80;1.00;;;;;;2611681;54;20418;-61
2024/04/24 10:33:19;;;;;;;25.10;24.10;;;21.80;1.00;;;;;;2611551;54;20996;-61
2024/04/24 10:35:45;;;;;;;24.70;23.70;;;21.70;1.00;;;;;;2612838;39;20786;-61
2024/04/24 10:38:13;;;;;;;26.07;25.07;;;21.70;1.00;;;;;;2612475;54;20420;-60
2024/04/24 10:40:39;;;;;;;58.03;55.83;;;21.70;1.00;;;;;;2611140;54;20154;-61
2024/04/24 10:43:06;;;;;;;25.33;24.33;;;21.80;1.00;;;;;;2611723;54;20495;-60
2024/04/24 10:45:39;;;;;;;25.53;24.53;;;21.90;1.00;;;;;;2611293;54;20171;-61
2024/04/24 10:48:08;;;;;;;25.23;24.23;;;22.20;1.00;;;;;;2611695;50;20446;-73
2024/04/24 10:50:34;;;;;;;33.07;31.73;;;22.30;1.00;;;;;;2611187;47;20430;-73
2024/04/24 10:53:02;;;;;;;26.83;25.83;;;22.50;1.00;;;;;;2612137;54;20431;-73
2024/04/24 10:55:28;;;;;;;58.87;56.57;;;22.50;1.00;;;;;;2611789;39;20837;-73
2024/04/24 10:57:54;;;;;;;58.07;55.87;;;22.60;1.00;;;;;;2611535;54;20415;-62
2024/04/24 11:00:22;;;;;;;26.40;25.30;;;22.70;1.00;;;;;;2610967;54;20174;-62
2024/04/24 11:02:51;;;;;;;25.17;24.17;;;22.80;1.00;;;;;;2611159;46;20559;-62
2024/04/24 11:05:18;;;;;;;24.80;23.80;;;22.80;1.00;;;;;;2611958;54;20408;-63
2024/04/24 11:07:55;;;;;;;26.13;25.10;;;22.80;1.00;;;;;;2611995;54;20423;-61
2024/04/24 11:10:21;;;;;;;57.60;55.40;;;22.80;1.00;;;;;;2611156;54;20510;-61
2024/04/24 11:12:47;;;;;;;25.73;24.63;;;22.80;1.00;;;;;;2611481;54;20439;-59
2024/04/24 11:15:23;;;;;;;25.50;24.50;;;22.80;1.00;;;;;;2611581;54;20431;-61
2024/04/24 11:17:50;;;;;;;25.80;24.70;;;22.90;1.00;;;;;;2612673;39;20252;-61
2024/04/24 11:20:19;;;;;;;25.10;24.10;;;23.00;1.00;;;;;;2611420;54;20395;-60
2024/04/24 11:22:46;;;;;;;25.40;24.40;;;23.00;1.00;;;;;;2611266;54;20458;-60
2024/04/24 11:25:13;;;;;;;26.47;25.37;;;23.00;1.00;;;;;;2612031;54;20400;-60
2024/04/24 11:27:40;;;;;;;26.00;24.93;;;22.90;1.00;;;;;;2610670;54;20423;-60
2024/04/24 11:30:14;;;;;;;26.03;24.93;;;22.90;1.00;;;;;;2610908;54;20427;-61
2024/04/24 11:32:44;;;;;;;26.00;24.90;;;22.80;1.00;;;;;;2611708;39;20845;-60
2024/04/24 11:35:11;;;;;;;25.47;24.47;;;22.70;1.00;;;;;;2612127;54;20438;-61
2024/04/24 11:37:38;;;;;;;59.70;57.40;;;22.70;1.00;;;;;;2610743;54;20442;-61
2024/04/24 11:40:06;;;;;;;60.27;57.97;;;22.70;1.00;;;;;;2611144;54;20403;-60
2024/04/24 11:42:32;;;;;;;25.87;24.80;;;22.70;1.00;;;;;;2611444;54;20474;-60
2024/04/24 11:44:58;;;;;;;27.23;26.13;;;22.80;1.00;;;;;;2611709;47;20428;-60
2024/04/24 11:47:24;;;;;;;26.30;25.23;;;22.80;1.00;;;;;;2611278;54;20441;-60
2024/04/24 11:49:51;;;;;;;25.40;24.40;;;22.90;1.00;;;;;;2611193;47;20428;-60
2024/04/24 11:52:17;;;;;;;25.40;24.40;;;22.90;1.00;;;;;;2611746;39;20561;-59
2024/04/24 11:54:50;;;;;;;25.77;24.67;;;22.80;1.00;;;;;;2611588;54;20419;-59
2024/04/24 11:57:19;;;;;;;47.67;45.83;;;22.80;1.00;;;;;;2611885;54;20200;-69
2024/04/24 11:59:48;;;;;;;25.43;24.43;;;22.80;1.00;;;;;;2611093;47;20428;-68
2024/04/24 12:02:18;;;;;;;25.20;24.20;;;22.70;1.00;;;;;;2611679;39;20761;-68
2024/04/24 12:04:47;;;;;;;25.10;24.10;;;22.60;1.00;;;;;;2611516;54;20427;-69
2024/04/24 12:07:13;;;;;;;27.53;26.43;;;22.50;1.00;;;;;;2611191;54;20419;-63
2024/04/24 12:09:39;;;;;;;38.23;36.73;;;22.40;1.00;;;;;;2611414;54;20403;-63
2024/04/24 12:12:06;;;;;;;58.83;56.63;;;22.40;1.00;;;;;;2612105;47;20434;-63
2024/04/24 12:14:37;;;;;;;25.13;24.13;;;22.30;1.00;;;;;;2610678;47;20411;-62
2024/04/24 12:17:05;;;;;;;59.00;56.80;;;22.30;1.00;;;;;;2612120;54;20922;-63
2024/04/24 12:19:31;;;;;;;58.37;56.13;;;22.30;1.00;;;;;;2610517;54;20411;-63
2024/04/24 12:21:57;;;;;;;25.30;24.30;;;22.40;1.00;;;;;;2608916;54;20415;-63
2024/04/24 12:24:24;;;;;;;25.77;24.77;;;22.50;1.00;;;;;;2611880;54;20151;-63
2024/04/24 12:26:51;;;;;;;26.10;25.00;;;22.40;1.00;;;;;;2612451;31;20963;-62
2024/04/24 12:29:16;;;;;;;26.20;25.20;;;22.40;1.00;;;;;;2612287;54;20415;-63
2024/04/24 12:31:42;;;;;;;26.23;25.13;;;22.50;1.00;;;;;;2610890;54;20427;-63
2024/04/24 12:34:10;;;;;;;58.60;56.40;;;22.60;1.00;;;;;;2611234;54;20197;-63
2024/04/24 12:36:36;;;;;;;26.40;25.30;;;22.70;1.00;;;;;;2611446;54;20434;-63